Disney Magic — C6PT7 — position and weather

sailwx.info

Track history (hours):
 
Tides and Currents Weather Stations Pressure Air Temp Water Temp Dewpoint Dewpoint Depression Visibility Wind Speed Wind Dir Waves Ship Positions

Disney Magic

Last reported at 2017-May-25 03:00 UTC. Time now 2017-May-25 03:12 UTC.
Position N 52°29' E 004°12'.

Type: Passenger vessel. MMSI: 308516000.

Date/timePositionNaut miles runAvg speedWind from/ knotsBaromVisibWave heightAir tempDewpointWater temp
2017-May-25 03:00N 52°29' E 004°12'917.3
2017-May-25 02:30N 52°27' E 003°59'917.5
2017-May-25 02:00N 52°25' E 003°45'816.6
2017-May-25 01:30N 52°23' E 003°31'1020.8
2017-May-25 01:01N 52°16' E 003°19'1222.8
2017-May-25 00:28N 52°08' E 003°04'1122.8
2017-May-24 23:58N 51°59' E 002°52'1122.7
2017-May-24 23:30N 51°51' E 002°42'1122.6
2017-May-24 23:00N 51°43' E 002°30'1122.1
2017-May-24 22:30N 51°34' E 002°19'1020.1
2017-May-24 22:00N 51°26' E 002°08'1020.6
2017-May-24 21:30N 51°16' E 002°05'1020.0
2017-May-24 21:00N 51°10' E 001°52'1020.8
2017-May-24 20:30N 51°05' E 001°38'816.7
2017-May-24 20:00N 51°05' E 001°25'4 5.9
2017-May-24 19:25N 51°07' E 001°19'0 0.0
2017-May-24 18:58N 51°07' E 001°19'0 0.0
2017-May-24 18:28N 51°07' E 001°19'0 0.0
2017-May-24 17:52N 51°07' E 001°19'0 0.0
2017-May-24 17:22N 51°07' E 001°19'0 0.0
2017-May-24 16:55N 51°07' E 001°19'0 0.0
2017-May-24 16:25N 51°07' E 001°19'0 0.0
2017-May-24 15:58N 51°07' E 001°19'0 0.0
2017-May-24 15:31N 51°07' E 001°19'0 0.0
2017-May-24 14:58N 51°07' E 001°19'0 0.0
2017-May-24 14:16N 51°07' E 001°19'0 0.0
2017-May-24 13:25N 51°07' E 001°19'0 0.0
2017-May-24 12:52N 51°07' E 001°19'0 0.0
2017-May-24 12:25N 51°07' E 001°19'0 0.0
2017-May-24 11:58N 51°07' E 001°19'0 0.0
2017-May-24 11:31N 51°07' E 001°19'0 0.0
2017-May-24 10:58N 51°07' E 001°19'0 0.0
2017-May-24 10:16N 51°07' E 001°19'0 0.0
2017-May-24 09:55N 51°07' E 001°19'0 0.0
2017-May-24 09:22N 51°07' E 001°19'0 0.0
2017-May-24 08:58N 51°07' E 001°19'0 0.0
2017-May-24 08:22N 51°07' E 001°19'0 0.0
2017-May-24 07:58N 51°07' E 001°19'0 0.0
2017-May-24 07:28N 51°07' E 001°19'0 0.0
2017-May-24 06:58N 51°07' E 001°19'0 0.0
2017-May-24 06:30N 51°07' E 001°19'0 0.3
2017-May-24 06:00N 51°07' E 001°20'3 5.7
2017-May-24 05:30N 51°08' E 001°24'611.1
2017-May-24 05:01N 51°06' E 001°32'612.5
2017-May-24 04:30N 50°59' E 001°31'815.9
2017-May-24 04:00N 50°53' E 001°24'2319.1
2017-May-24 02:48N 50°33' E 001°05'1419.7
2017-May-24 02:04N 50°27' E 000°45'120.3
2017-May-24 02:00N 50°26' E 000°43'1020.3
2017-May-24 01:30N 50°24' E 000°27'1020.0
2017-May-24 01:00N 50°21' E 000°12'1019.9
2017-May-24 00:30N 50°17' W 000°02'1019.8
2017-May-24 00:00N 50°14' W 000°17'918.8
2017-May-23 23:30N 50°13' W 000°31'6818.5
2017-May-23 19:50N 50°30' W 002°14'718.6
2017-May-23 19:29N 50°35' W 002°22'2 5.2
2017-May-23 19:00N 50°34' W 002°26'0 0.7
2017-May-23 18:30N 50°34' W 002°26'0 0.0
2017-May-23 18:00N 50°34' W 002°26'0 0.0
2017-May-23 17:27N 50°34' W 002°26'0 0.0
2017-May-23 17:00N 50°34' W 002°26'0 0.0
2017-May-23 16:30N 50°34' W 002°26'0 0.0
2017-May-23 15:54N 50°34' W 002°26'0 0.0
2017-May-23 15:30N 50°34' W 002°26'0 0.0
2017-May-23 15:00N 50°34' W 002°26'0 0.0
2017-May-23 14:30N 50°34' W 002°26'0 0.0
2017-May-23 13:30N 50°34' W 002°26'0 0.0
2017-May-23 13:00N 50°34' W 002°26'0 0.0
2017-May-23 12:30N 50°34' W 002°26'0 0.0
2017-May-23 12:00N 50°34' W 002°26'0 0.0
2017-May-23 11:30N 50°34' W 002°26'0 0.0
2017-May-23 11:00N 50°34' W 002°26'0 0.0
2017-May-23 10:30N 50°34' W 002°26'0 0.0
2017-May-23 09:54N 50°34' W 002°26'0 0.0
2017-May-23 09:30N 50°34' W 002°26'1 1.2
2017-May-23 09:00N 50°35' W 002°25'2 4.9
2017-May-23 08:30N 50°34' W 002°22'4 7.9
2017-May-23 07:58N 50°31' W 002°17'610.1
2017-May-23 07:24N 50°25' W 002°15'410.1
2017-May-23 07:00N 50°21' W 002°14'510.4
2017-May-23 06:31N 50°16' W 002°15'510.4
2017-May-23 06:01N 50°11' W 002°15'1012.4
2017-May-23 05:13N 50°01' W 002°15'618.8
2017-May-23 04:53N 49°57' W 002°22'920.0
2017-May-23 04:27N 49°55' W 002°35'919.6
2017-May-23 04:01N 49°52' W 002°48'1019.5
2017-May-23 03:29N 49°49' W 003°03'919.3
2017-May-23 03:01N 49°46' W 003°16'917.9
2017-May-23 02:31N 49°43' W 003°29'918.0
2017-May-23 02:01N 49°41' W 003°43'918.3
2017-May-23 01:31N 49°38' W 003°56'918.3
2017-May-23 01:01N 49°36' W 004°10'918.2
2017-May-23 00:31N 49°33' W 004°23'918.1
2017-May-23 00:00N 49°30' W 004°37'918.0
2017-May-22 23:31N 49°28' W 004°50'917.8
2017-May-22 22:59N 49°24' W 005°03'1019.9
2017-May-22 22:30N 49°20' W 005°16'1121.2
2017-May-22 22:00N 49°14' W 005°30'10820.1
2017-May-22 16:38N 48°07' W 007°38'93521.3
2017-May-20 20:40N 38°14' W 024°09'521.6
2017-May-20 20:26N 38°11' W 024°14'921.3
2017-May-20 20:00N 38°05' W 024°23'1121.7
2017-May-20 19:30N 37°58' W 024°33'1121.7
2017-May-20 19:00N 37°51' W 024°44'1121.6
2017-May-20 18:30N 37°44' W 024°55'1020.7
2017-May-20 18:00N 37°38' W 025°05'1019.7
2017-May-20 17:30N 37°39' W 025°18'1019.6
2017-May-20 17:00N 37°40' W 025°30'815.8
2017-May-20 16:30N 37°44' W 025°39'1 1.7
2017-May-20 15:58N 37°44' W 025°40'0 0.0
2017-May-20 15:28N 37°44' W 025°40'0 0.0
2017-May-20 14:58N 37°44' W 025°40'0 0.0
2017-May-20 14:28N 37°44' W 025°40'0 0.0
2017-May-20 13:28N 37°44' W 025°40'0 0.0
2017-May-20 12:58N 37°44' W 025°40'0 0.0
2017-May-20 12:28N 37°44' W 025°40'0 0.0
2017-May-20 11:58N 37°44' W 025°40'0 0.0
2017-May-20 11:28N 37°44' W 025°40'0 0.0
2017-May-20 10:58N 37°44' W 025°40'0 0.0
2017-May-20 10:28N 37°44' W 025°40'0 0.0
2017-May-20 09:58N 37°44' W 025°40'0 0.0
2017-May-20 09:28N 37°44' W 025°40'0 0.0
2017-May-20 08:58N 37°44' W 025°40'0 0.0
2017-May-20 08:28N 37°44' W 025°40'0 0.0
2017-May-20 07:58N 37°44' W 025°40'0 0.0
2017-May-20 07:28N 37°44' W 025°40'0 0.0
2017-May-20 06:58N 37°44' W 025°40'0 0.0
2017-May-20 06:31N 37°44' W 025°40'1 1.1
2017-May-20 06:01N 37°44' W 025°39'2 4.2
2017-May-20 05:30N 37°43' W 025°41'4 8.8
2017-May-20 05:00N 37°42' W 025°46'4 8.9
2017-May-20 04:30N 37°41' W 025°52'4 8.3
2017-May-20 04:01N 37°40' W 025°57'4 8.2
2017-May-20 03:30N 37°39' W 026°02'4 8.3
2017-May-20 03:00N 37°38' W 026°07'4 8.3
2017-May-20 02:30N 37°37' W 026°12'4 8.4
2017-May-20 02:01N 37°36' W 026°17'4 8.3
2017-May-20 01:31N 37°35' W 026°22'4 8.1
2017-May-20 01:00N 37°34' W 026°27'4 7.7
2017-May-20 00:30N 37°33' W 026°32'4 8.1
2017-May-20 00:01N 37°33' W 026°37'4 8.3
2017-May-19 23:30N 37°32' W 026°42'5 9.1
2017-May-19 23:00N 37°31' W 026°48'4 8.9
2017-May-19 22:30N 37°30' W 026°53'4 8.8
2017-May-19 22:01N 37°29' W 026°59'4 8.7
2017-May-19 21:30N 37°28' W 027°04'4 8.9
2017-May-19 21:00N 37°27' W 027°09'916.6
2017-May-19 20:30N 37°25' W 027°20'917.7
2017-May-19 19:58N 37°23' W 027°31'817.8
2017-May-19 19:30N 37°21' W 027°41'917.6
2017-May-19 19:00N 37°19' W 027°52'917.3
2017-May-19 18:31N 37°17' W 028°03'917.3
2017-May-19 18:00N 37°16' W 028°14'917.5
2017-May-19 17:30N 37°14' W 028°24'917.3
2017-May-19 17:01N 37°12' W 028°35'917.2
2017-May-19 16:30N 37°10' W 028°45'917.2
2017-May-19 16:00N 37°08' W 028°56'917.2
2017-May-19 15:30N 37°06' W 029°06'1217.7
2017-May-19 14:50N 37°04' W 029°21'  
Track history (hours):
 
Tides and Currents Weather Stations Pressure Air Temp Water Temp Dewpoint Dewpoint Depression Visibility Wind Speed Wind Dir Waves Ship Positions

Disney Magic

Last reported at 2017-May-25 03:00 UTC. Time now 2017-May-25 03:12 UTC.
Position N 52°29' E 004°12'.

Type: Passenger vessel. MMSI: 308516000.

Date/timePositionNaut miles runAvg speedWind from/ knotsBaromVisibWave heightAir tempDewpointWater temp
2017-May-25 03:00N 52°29' E 004°12'917.3
2017-May-25 02:30N 52°27' E 003°59'917.5
2017-May-25 02:00N 52°25' E 003°45'816.6
2017-May-25 01:30N 52°23' E 003°31'1020.8
2017-May-25 01:01N 52°16' E 003°19'1222.8
2017-May-25 00:28N 52°08' E 003°04'1122.8
2017-May-24 23:58N 51°59' E 002°52'1122.7
2017-May-24 23:30N 51°51' E 002°42'1122.6
2017-May-24 23:00N 51°43' E 002°30'1122.1
2017-May-24 22:30N 51°34' E 002°19'1020.1
2017-May-24 22:00N 51°26' E 002°08'1020.6
2017-May-24 21:30N 51°16' E 002°05'1020.0
2017-May-24 21:00N 51°10' E 001°52'1020.8
2017-May-24 20:30N 51°05' E 001°38'816.7
2017-May-24 20:00N 51°05' E 001°25'4 5.9
2017-May-24 19:25N 51°07' E 001°19'0 0.0
2017-May-24 18:58N 51°07' E 001°19'0 0.0
2017-May-24 18:28N 51°07' E 001°19'0 0.0
2017-May-24 17:52N 51°07' E 001°19'0 0.0
2017-May-24 17:22N 51°07' E 001°19'0 0.0
2017-May-24 16:55N 51°07' E 001°19'0 0.0
2017-May-24 16:25N 51°07' E 001°19'0 0.0
2017-May-24 15:58N 51°07' E 001°19'0 0.0
2017-May-24 15:31N 51°07' E 001°19'0 0.0
2017-May-24 14:58N 51°07' E 001°19'0 0.0
2017-May-24 14:16N 51°07' E 001°19'0 0.0
2017-May-24 13:25N 51°07' E 001°19'0 0.0
2017-May-24 12:52N 51°07' E 001°19'0 0.0
2017-May-24 12:25N 51°07' E 001°19'0 0.0
2017-May-24 11:58N 51°07' E 001°19'0 0.0
2017-May-24 11:31N 51°07' E 001°19'0 0.0
2017-May-24 10:58N 51°07' E 001°19'0 0.0
2017-May-24 10:16N 51°07' E 001°19'0 0.0
2017-May-24 09:55N 51°07' E 001°19'0 0.0
2017-May-24 09:22N 51°07' E 001°19'0 0.0
2017-May-24 08:58N 51°07' E 001°19'0 0.0
2017-May-24 08:22N 51°07' E 001°19'0 0.0
2017-May-24 07:58N 51°07' E 001°19'0 0.0
2017-May-24 07:28N 51°07' E 001°19'0 0.0
2017-May-24 06:58N 51°07' E 001°19'0 0.0
2017-May-24 06:30N 51°07' E 001°19'0 0.3
2017-May-24 06:00N 51°07' E 001°20'3 5.7
2017-May-24 05:30N 51°08' E 001°24'611.1
2017-May-24 05:01N 51°06' E 001°32'612.5
2017-May-24 04:30N 50°59' E 001°31'815.9
2017-May-24 04:00N 50°53' E 001°24'2319.1
2017-May-24 02:48N 50°33' E 001°05'1419.7
2017-May-24 02:04N 50°27' E 000°45'120.3
2017-May-24 02:00N 50°26' E 000°43'1020.3
2017-May-24 01:30N 50°24' E 000°27'1020.0
2017-May-24 01:00N 50°21' E 000°12'1019.9
2017-May-24 00:30N 50°17' W 000°02'1019.8
2017-May-24 00:00N 50°14' W 000°17'918.8
2017-May-23 23:30N 50°13' W 000°31'6818.5
2017-May-23 19:50N 50°30' W 002°14'718.6
2017-May-23 19:29N 50°35' W 002°22'2 5.2
2017-May-23 19:00N 50°34' W 002°26'0 0.7
2017-May-23 18:30N 50°34' W 002°26'0 0.0
2017-May-23 18:00N 50°34' W 002°26'0 0.0
2017-May-23 17:27N 50°34' W 002°26'0 0.0
2017-May-23 17:00N 50°34' W 002°26'0 0.0
2017-May-23 16:30N 50°34' W 002°26'0 0.0
2017-May-23 15:54N 50°34' W 002°26'0 0.0
2017-May-23 15:30N 50°34' W 002°26'0 0.0
2017-May-23 15:00N 50°34' W 002°26'0 0.0
2017-May-23 14:30N 50°34' W 002°26'0 0.0
2017-May-23 13:30N 50°34' W 002°26'0 0.0
2017-May-23 13:00N 50°34' W 002°26'0 0.0
2017-May-23 12:30N 50°34' W 002°26'0 0.0
2017-May-23 12:00N 50°34' W 002°26'0 0.0
2017-May-23 11:30N 50°34' W 002°26'0 0.0
2017-May-23 11:00N 50°34' W 002°26'0 0.0
2017-May-23 10:30N 50°34' W 002°26'0 0.0
2017-May-23 09:54N 50°34' W 002°26'0 0.0
2017-May-23 09:30N 50°34' W 002°26'1 1.2
2017-May-23 09:00N 50°35' W 002°25'2 4.9
2017-May-23 08:30N 50°34' W 002°22'4 7.9
2017-May-23 07:58N 50°31' W 002°17'610.1
2017-May-23 07:24N 50°25' W 002°15'410.1
2017-May-23 07:00N 50°21' W 002°14'510.4
2017-May-23 06:31N 50°16' W 002°15'510.4
2017-May-23 06:01N 50°11' W 002°15'1012.4
2017-May-23 05:13N 50°01' W 002°15'618.8
2017-May-23 04:53N 49°57' W 002°22'920.0
2017-May-23 04:27N 49°55' W 002°35'919.6
2017-May-23 04:01N 49°52' W 002°48'1019.5
2017-May-23 03:29N 49°49' W 003°03'919.3
2017-May-23 03:01N 49°46' W 003°16'917.9
2017-May-23 02:31N 49°43' W 003°29'918.0
2017-May-23 02:01N 49°41' W 003°43'918.3
2017-May-23 01:31N 49°38' W 003°56'918.3
2017-May-23 01:01N 49°36' W 004°10'918.2
2017-May-23 00:31N 49°33' W 004°23'918.1
2017-May-23 00:00N 49°30' W 004°37'918.0
2017-May-22 23:31N 49°28' W 004°50'917.8
2017-May-22 22:59N 49°24' W 005°03'1019.9
2017-May-22 22:30N 49°20' W 005°16'1121.2
2017-May-22 22:00N 49°14' W 005°30'10820.1
2017-May-22 16:38N 48°07' W 007°38'93521.3
2017-May-20 20:40N 38°14' W 024°09'521.6
2017-May-20 20:26N 38°11' W 024°14'921.3
2017-May-20 20:00N 38°05' W 024°23'1121.7
2017-May-20 19:30N 37°58' W 024°33'1121.7
2017-May-20 19:00N 37°51' W 024°44'1121.6
2017-May-20 18:30N 37°44' W 024°55'1020.7
2017-May-20 18:00N 37°38' W 025°05'1019.7
2017-May-20 17:30N 37°39' W 025°18'1019.6
2017-May-20 17:00N 37°40' W 025°30'815.8
2017-May-20 16:30N 37°44' W 025°39'1 1.7
2017-May-20 15:58N 37°44' W 025°40'0 0.0
2017-May-20 15:28N 37°44' W 025°40'0 0.0
2017-May-20 14:58N 37°44' W 025°40'0 0.0
2017-May-20 14:28N 37°44' W 025°40'0 0.0
2017-May-20 13:28N 37°44' W 025°40'0 0.0
2017-May-20 12:58N 37°44' W 025°40'0 0.0
2017-May-20 12:28N 37°44' W 025°40'0 0.0
2017-May-20 11:58N 37°44' W 025°40'0 0.0
2017-May-20 11:28N 37°44' W 025°40'0 0.0
2017-May-20 10:58N 37°44' W 025°40'0 0.0
2017-May-20 10:28N 37°44' W 025°40'0 0.0
2017-May-20 09:58N 37°44' W 025°40'0 0.0
2017-May-20 09:28N 37°44' W 025°40'0 0.0
2017-May-20 08:58N 37°44' W 025°40'0 0.0
2017-May-20 08:28N 37°44' W 025°40'0 0.0
2017-May-20 07:58N 37°44' W 025°40'0 0.0
2017-May-20 07:28N 37°44' W 025°40'0 0.0
2017-May-20 06:58N 37°44' W 025°40'0 0.0
2017-May-20 06:31N 37°44' W 025°40'1 1.1
2017-May-20 06:01N 37°44' W 025°39'2 4.2
2017-May-20 05:30N 37°43' W 025°41'4 8.8
2017-May-20 05:00N 37°42' W 025°46'4 8.9
2017-May-20 04:30N 37°41' W 025°52'4 8.3
2017-May-20 04:01N 37°40' W 025°57'4 8.2
2017-May-20 03:30N 37°39' W 026°02'4 8.3
2017-May-20 03:00N 37°38' W 026°07'4 8.3
2017-May-20 02:30N 37°37' W 026°12'4 8.4
2017-May-20 02:01N 37°36' W 026°17'4 8.3
2017-May-20 01:31N 37°35' W 026°22'4 8.1
2017-May-20 01:00N 37°34' W 026°27'4 7.7
2017-May-20 00:30N 37°33' W 026°32'4 8.1
2017-May-20 00:01N 37°33' W 026°37'4 8.3
2017-May-19 23:30N 37°32' W 026°42'5 9.1
2017-May-19 23:00N 37°31' W 026°48'4 8.9
2017-May-19 22:30N 37°30' W 026°53'4 8.8
2017-May-19 22:01N 37°29' W 026°59'4 8.7
2017-May-19 21:30N 37°28' W 027°04'4 8.9
2017-May-19 21:00N 37°27' W 027°09'916.6
2017-May-19 20:30N 37°25' W 027°20'917.7
2017-May-19 19:58N 37°23' W 027°31'817.8
2017-May-19 19:30N 37°21' W 027°41'917.6
2017-May-19 19:00N 37°19' W 027°52'917.3
2017-May-19 18:31N 37°17' W 028°03'917.3
2017-May-19 18:00N 37°16' W 028°14'917.5
2017-May-19 17:30N 37°14' W 028°24'917.3
2017-May-19 17:01N 37°12' W 028°35'917.2
2017-May-19 16:30N 37°10' W 028°45'917.2
2017-May-19 16:00N 37°08' W 028°56'917.2
2017-May-19 15:30N 37°06' W 029°06'1217.7
2017-May-19 14:50N 37°04' W 029°21'  

Dump ship's entire track history